CheckWX is a tool to help pilots better visualize weather data.  It is not intended as a substitute for an official pre-flight weather briefing.

11:29:00 UTC

KTXK TAF
Texarkana Regional-Webb Field Airport
Texarkana, Arkansas, USA
KTXK 051140Z 0512/0612 08004KT P6SM OVC002 TEMPO 0512/0515 3SM BR BKN007 FM051500 08004KT 6SM BR OVC007 FM051800 VRB04KT P6SM OVC015 FM052100 VRB03KT P6SM OVC035 FM060300 13003KT P6SM BKN250

Apr-5@
12:00 UTC

Apr-5 @ 12:00 UTC

Apr-5@
15:00 UTC

Apr-5 @ 15:00 UTC

TAF KTXK 051140Z 0512/0612 08004KT P6SM OVC002

Expired

Wind
  • 080° at 4 KTS
Cloud Levels
  • Overcast at 200' AGL

Apr-5@
12:00 UTC

Apr-5 @ 12:00 UTC

Apr-5@
15:00 UTC

Apr-5 @ 15:00 UTC

TEMPO 0512/0515 3SM BR BKN007

Expired

Conditions
Mist
Cloud Levels
  • Broken at 700' AGL

Apr-5@
15:00 UTC

Apr-5 @ 15:00 UTC

Apr-5@
18:00 UTC

Apr-5 @ 18:00 UTC

FM051500 08004KT 6SM BR OVC007

Expired

Wind
  • 080° at 4 KTS
Conditions
Mist
Cloud Levels
  • Overcast at 700' AGL

Apr-5@
18:00 UTC

Apr-5 @ 18:00 UTC

Apr-5@
21:00 UTC

Apr-5 @ 21:00 UTC

FM051800 VRB04KT P6SM OVC015

Expired

Wind
  • Variable at 4 KTS
Cloud Levels
  • Overcast at 1,500' AGL

Apr-5@
21:00 UTC

Apr-5 @ 21:00 UTC

Apr-6@
03:00 UTC

Apr-6 @ 03:00 UTC

FM052100 VRB03KT P6SM OVC035

Expired

Wind
  • Variable at 3 KTS
Cloud Levels
  • Overcast at 3,500' AGL

Apr-6@
03:00 UTC

Apr-6 @ 03:00 UTC

Apr-6@
12:00 UTC

Apr-6 @ 12:00 UTC

FM060300 13003KT P6SM BKN250

From

From Standard forecast or significant change

Wind
  • 130° at 3 KTS
Cloud Levels
  • Broken at 25,000' AGL